TAF EGGP
EGGP 090454Z 0906/1006 27012KT 9999 SCT014 PROB30 TEMPO 0906/0909 27015G25KT 6000 RA SHRA BKN012 BECMG 0909/0912 21007KT BECMG 0912/0915 15010KT TEMPO 0915/0920 6000 RA BKN010 PROB30 TEMPO 0916/0919 3000 +RA BKN008 BECMG 0918/0921 29014KT TEMPO 0920/1006 30017G27KT 6000 SHRA PROB30 TEMPO 0920/1006 3000 +SHRA BKN014 BKN025CB=
METAR EGGP
WC EGGP
WS EGGP
WV EGGP